sensor_id;sensor_type;location;lat;lon;timestamp;pressure;altitude;pressure_sealevel;temperature;humidity
3590;BME280;1809;48.470;9.226;2024-02-15T00:02:19;105373.66;;;9.59;100.00
3590;BME280;1809;48.470;9.226;2024-02-15T00:04:45;106050.19;;;9.54;100.00
3590;BME280;1809;48.470;9.226;2024-02-15T00:07:10;106739.00;;;9.56;100.00
3590;BME280;1809;48.470;9.226;2024-02-15T00:09:35;107087.00;;;9.59;100.00
3590;BME280;1809;48.470;9.226;2024-02-15T00:12:01;106401.56;;;9.59;100.00
3590;BME280;1809;48.470;9.226;2024-02-15T00:14:27;106060.66;;;9.60;100.00
3590;BME280;1809;48.470;9.226;2024-02-15T00:16:56;105719.75;;;9.61;100.00
3590;BME280;1809;48.470;9.226;2024-02-15T00:19:22;105720.63;;;9.62;100.00
3590;BME280;1809;48.470;9.226;2024-02-15T00:21:47;105715.38;;;9.59;100.00
3590;BME280;1809;48.470;9.226;2024-02-15T00:24:13;105389.25;;;9.68;100.00
3590;BME280;1809;48.470;9.226;2024-02-15T00:26:40;104353.78;;;9.64;100.00
3590;BME280;1809;48.470;9.226;2024-02-15T00:29:05;103666.25;;;9.62;100.00
3590;BME280;1809;48.470;9.226;2024-02-15T00:31:31;103662.84;;;9.60;100.00
3590;BME280;1809;48.470;9.226;2024-02-15T00:33:56;103661.13;;;9.59;100.00
3590;BME280;1809;48.470;9.226;2024-02-15T00:36:21;104003.56;;;9.59;100.00
3590;BME280;1809;48.470;9.226;2024-02-15T00:38:48;104345.16;;;9.59;100.00
3590;BME280;1809;48.470;9.226;2024-02-15T00:41:13;104688.53;;;9.59;100.00
3590;BME280;1809;48.470;9.226;2024-02-15T00:43:38;105032.81;;;9.60;100.00
3590;BME280;1809;48.470;9.226;2024-02-15T00:46:04;105035.41;;;9.62;100.00
3590;BME280;1809;48.470;9.226;2024-02-15T00:48:29;105044.94;;;9.67;100.00
3590;BME280;1809;48.470;9.226;2024-02-15T00:50:59;104705.78;;;9.69;100.00
3590;BME280;1809;48.470;9.226;2024-02-15T00:53:24;104024.97;;;9.72;100.00
3590;BME280;1809;48.470;9.226;2024-02-15T00:55:49;103334.03;;;9.68;100.00
3590;BME280;1809;48.470;9.226;2024-02-15T00:58:15;103337.44;;;9.70;100.00
3590;BME280;1809;48.470;9.226;2024-02-15T01:00:40;102650.06;;;9.69;100.00
3590;BME280;1809;48.470;9.226;2024-02-15T01:03:05;101962.88;;;9.67;100.00
3590;BME280;1809;48.470;9.226;2024-02-15T01:05:31;101951.97;;;9.61;100.00
3590;BME280;1809;48.470;9.226;2024-02-15T01:07:56;102288.38;;;9.57;100.00
3590;BME280;1809;48.470;9.226;2024-02-15T01:10:22;102276.56;;;9.50;100.00
3590;BME280;1809;48.470;9.226;2024-02-15T01:12:49;102941.66;;;9.39;100.00
3590;BME280;1809;48.470;9.226;2024-02-15T01:15:14;103949.69;;;9.28;100.00
3590;BME280;1809;48.470;9.226;2024-02-15T01:17:43;105641.44;;;9.16;100.00
3590;BME280;1809;48.470;9.226;2024-02-15T01:20:10;107675.00;;;9.04;100.00
3590;BME280;1809;48.470;9.226;2024-02-15T01:22:35;110059.78;;;8.96;100.00
3590;BME280;1809;48.470;9.226;2024-02-15T01:25:01;112100.84;;;8.88;100.00
3590;BME280;1809;48.470;9.226;2024-02-15T01:27:26;113793.94;;;8.76;100.00
3590;BME280;1809;48.470;9.226;2024-02-15T01:29:55;115504.34;;;8.74;100.00
3590;BME280;1809;48.470;9.226;2024-02-15T01:32:20;116868.34;;;8.69;100.00
3590;BME280;1809;48.470;9.226;2024-02-15T01:34:46;119276.59;;;8.72;100.00
3590;BME280;1809;48.470;9.226;2024-02-15T01:37:11;120309.09;;;8.73;100.00
3590;BME280;1809;48.470;9.226;2024-02-15T01:39:36;120640.72;;;8.67;100.00
3590;BME280;1809;48.470;9.226;2024-02-15T01:42:02;121317.91;;;8.61;100.00
3590;BME280;1809;48.470;9.226;2024-02-15T01:44:28;121657.50;;;8.59;100.00
3590;BME280;1809;48.470;9.226;2024-02-15T01:46:53;121994.13;;;8.56;100.00
3590;BME280;1809;48.470;9.226;2024-02-15T01:49:21;122682.44;;;8.56;100.00
3590;BME280;1809;48.470;9.226;2024-02-15T01:51:48;122674.34;;;8.52;100.00
3590;BME280;1809;48.470;9.226;2024-02-15T01:54:14;123022.13;;;8.54;100.00
3590;BME280;1809;48.470;9.226;2024-02-15T01:56:43;122675.38;;;8.53;100.00
3590;BME280;1809;48.470;9.226;2024-02-15T01:59:10;122315.50;;;8.45;100.00
3590;BME280;1809;48.470;9.226;2024-02-15T02:01:36;122663.16;;;8.47;100.00
3590;BME280;1809;48.470;9.226;2024-02-15T02:04:01;122653.03;;;8.42;100.00
3590;BME280;1809;48.470;9.226;2024-02-15T02:06:28;122645.94;;;8.38;100.00
3590;BME280;1809;48.470;9.226;2024-02-15T02:08:54;122635.81;;;8.33;100.00
3590;BME280;1809;48.470;9.226;2024-02-15T02:11:22;122967.19;;;8.27;100.00
3590;BME280;1809;48.470;9.226;2024-02-15T02:13:47;123295.47;;;8.20;100.00
3590;BME280;1809;48.470;9.226;2024-02-15T02:16:31;123980.63;;;8.19;100.00
3590;BME280;1809;48.470;9.226;2024-02-15T02:18:58;123607.34;;;8.04;100.00
3590;BME280;1809;48.470;9.226;2024-02-15T02:21:27;123932.41;;;7.95;100.00
3590;BME280;1809;48.470;9.226;2024-02-15T02:23:56;124953.75;;;7.90;100.00
3590;BME280;1809;48.470;9.226;2024-02-15T02:26:22;125958.53;;;7.78;100.00
3590;BME280;1809;48.470;9.226;2024-02-15T02:28:49;126620.63;;;7.66;100.00
3590;BME280;1809;48.470;9.226;2024-02-15T02:31:15;127293.09;;;7.58;100.00
3590;BME280;1809;48.470;9.226;2024-02-15T02:33:48;128313.44;;;7.53;100.00
3590;BME280;1809;48.470;9.226;2024-02-15T02:36:14;128977.38;;;7.42;100.00
3590;BME280;1809;48.470;9.226;2024-02-15T02:38:39;129291.09;;;7.28;100.00
3590;BME280;1809;48.470;9.226;2024-02-15T02:41:05;130322.19;;;7.28;100.00
3590;BME280;1809;48.470;9.226;2024-02-15T02:43:30;131009.72;;;7.28;100.00
3590;BME280;1809;48.470;9.226;2024-02-15T02:45:55;132063.16;;;7.38;100.00
3590;BME280;1809;48.470;9.226;2024-02-15T02:48:21;132396.19;;;7.33;100.00
3590;BME280;1809;48.470;9.226;2024-02-15T02:50:48;132366.53;;;7.20;100.00
3590;BME280;1809;48.470;9.226;2024-02-15T02:53:13;131995.28;;;7.07;100.00
3590;BME280;1809;48.470;9.226;2024-02-15T02:55:41;131971.22;;;6.96;100.00
3590;BME280;1809;48.470;9.226;2024-02-15T02:58:06;132675.25;;;7.03;100.00
3590;BME280;1809;48.470;9.226;2024-02-15T03:00:33;133357.41;;;7.01;100.00
3590;BME280;1809;48.470;9.226;2024-02-15T03:02:58;134040.81;;;6.99;100.00
3590;BME280;1809;48.470;9.226;2024-02-15T03:05:27;134382.53;;;6.98;100.00
3590;BME280;1809;48.470;9.226;2024-02-15T03:07:54;135091.81;;;7.08;100.00
3590;BME280;1809;48.470;9.226;2024-02-15T03:10:20;135469.63;;;7.23;100.00
3590;BME280;1809;48.470;9.226;2024-02-15T03:12:45;135119.84;;;7.20;100.00
3590;BME280;1809;48.470;9.226;2024-02-15T03:15:12;134755.59;;;7.11;100.00
3590;BME280;1809;48.470;9.226;2024-02-15T03:17:39;134051.91;;;7.04;100.00
3590;BME280;1809;48.470;9.226;2024-02-15T03:20:06;134043.06;;;7.00;100.00
3590;BME280;1809;48.470;9.226;2024-02-15T03:22:38;134051.91;;;7.04;100.00
3590;BME280;1809;48.470;9.226;2024-02-15T03:25:06;133709.09;;;7.04;100.00
3590;BME280;1809;48.470;9.226;2024-02-15T03:27:36;133336.41;;;6.91;100.00
3590;BME280;1809;48.470;9.226;2024-02-15T03:30:06;133699.13;;;7.00;100.00
3590;BME280;1809;48.470;9.226;2024-02-15T03:32:31;133346.38;;;6.96;100.00
3590;BME280;1809;48.470;9.226;2024-02-15T03:34:57;133344.16;;;6.95;100.00
3590;BME280;1809;48.470;9.226;2024-02-15T03:37:23;132984.91;;;6.88;100.00
3590;BME280;1809;48.470;9.226;2024-02-15T03:39:49;132980.47;;;6.86;100.00
3590;BME280;1809;48.470;9.226;2024-02-15T03:42:14;132993.69;;;6.92;100.00
3590;BME280;1809;48.470;9.226;2024-02-15T03:44:40;132643.31;;;6.89;100.00
3590;BME280;1809;48.470;9.226;2024-02-15T03:47:06;132647.75;;;6.91;100.00
3590;BME280;1809;48.470;9.226;2024-02-15T03:49:32;132662.00;;;6.97;100.00
3590;BME280;1809;48.470;9.226;2024-02-15T03:51:58;132324.81;;;7.00;100.00
3590;BME280;1809;48.470;9.226;2024-02-15T03:54:25;131630.78;;;6.97;100.00
3590;BME280;1809;48.470;9.226;2024-02-15T03:56:51;130571.72;;;6.84;100.00
3590;BME280;1809;48.470;9.226;2024-02-15T03:59:20;130567.38;;;6.82;100.00
3590;BME280;1809;48.470;9.226;2024-02-15T04:01:52;130577.13;;;6.87;100.00
3590;BME280;1809;48.470;9.226;2024-02-15T04:04:17;130568.47;;;6.83;100.00
3590;BME280;1809;48.470;9.226;2024-02-15T04:06:43;130564.16;;;6.81;100.00
3590;BME280;1809;48.470;9.226;2024-02-15T04:09:08;130564.16;;;6.81;100.00
3590;BME280;1809;48.470;9.226;2024-02-15T04:11:35;130572.81;;;6.85;100.00
3590;BME280;1809;48.470;9.226;2024-02-15T04:14:02;130581.47;;;6.89;100.00
3590;BME280;1809;48.470;9.226;2024-02-15T04:16:28;130592.31;;;6.94;100.00
3590;BME280;1809;48.470;9.226;2024-02-15T04:18:55;130603.13;;;6.99;100.00
3590;BME280;1809;48.470;9.226;2024-02-15T04:21:22;130624.78;;;7.09;100.00
3590;BME280;1809;48.470;9.226;2024-02-15T04:23:48;130294.09;;;7.15;100.00
3590;BME280;1809;48.470;9.226;2024-02-15T04:26:13;129943.97;;;7.12;100.00
3590;BME280;1809;48.470;9.226;2024-02-15T04:28:40;129265.38;;;7.16;100.00
3590;BME280;1809;48.470;9.226;2024-02-15T04:31:06;128922.88;;;7.17;100.00
3590;BME280;1809;48.470;9.226;2024-02-15T04:33:34;128256.06;;;7.26;100.00
3590;BME280;1809;48.470;9.226;2024-02-15T04:36:00;127228.81;;;7.28;100.00
3590;BME280;1809;48.470;9.226;2024-02-15T04:38:28;126534.66;;;7.24;100.00
3590;BME280;1809;48.470;9.226;2024-02-15T04:40:53;126553.53;;;7.33;100.00
3590;BME280;1809;48.470;9.226;2024-02-15T04:43:19;125870.94;;;7.35;100.00
3590;BME280;1809;48.470;9.226;2024-02-15T04:45:45;125182.28;;;7.34;100.00
3590;BME280;1809;48.470;9.226;2024-02-15T04:48:11;125194.72;;;7.40;100.00
3590;BME280;1809;48.470;9.226;2024-02-15T04:50:38;124870.03;;;7.49;100.00
3590;BME280;1809;48.470;9.226;2024-02-15T04:53:08;124177.28;;;7.46;100.00
3590;BME280;1809;48.470;9.226;2024-02-15T04:55:36;123845.31;;;7.52;100.00
3590;BME280;1809;48.470;9.226;2024-02-15T04:58:01;123517.44;;;7.60;100.00
3590;BME280;1809;48.470;9.226;2024-02-15T05:00:27;122481.72;;;7.56;100.00
3590;BME280;1809;48.470;9.226;2024-02-15T05:02:53;122161.84;;;7.68;100.00
3590;BME280;1809;48.470;9.226;2024-02-15T05:05:19;120429.50;;;7.60;100.00
3590;BME280;1809;48.470;9.226;2024-02-15T05:07:45;120092.53;;;7.63;100.00
3590;BME280;1809;48.470;9.226;2024-02-15T05:10:11;119745.63;;;7.61;100.00
3590;BME280;1809;48.470;9.226;2024-02-15T05:12:38;119742.69;;;7.59;100.00
3590;BME280;1809;48.470;9.226;2024-02-15T05:15:05;119732.75;;;7.54;100.00
3590;BME280;1809;48.470;9.226;2024-02-15T05:17:37;120086.56;;;7.60;100.00
3590;BME280;1809;48.470;9.226;2024-02-15T05:20:02;120425.50;;;7.57;100.00
3590;BME280;1809;48.470;9.226;2024-02-15T05:22:35;120070.66;;;7.51;100.00
3590;BME280;1809;48.470;9.226;2024-02-15T05:25:01;120409.59;;;7.49;100.00
3590;BME280;1809;48.470;9.226;2024-02-15T05:27:30;120758.50;;;7.52;100.00
3590;BME280;1809;48.470;9.226;2024-02-15T05:29:56;121117.47;;;7.61;100.00
3590;BME280;1809;48.470;9.226;2024-02-15T05:32:22;120766.44;;;7.56;100.00
3590;BME280;1809;48.470;9.226;2024-02-15T05:34:47;120423.50;;;7.56;100.00
3590;BME280;1809;48.470;9.226;2024-02-15T05:37:14;120439.47;;;7.65;100.00
3590;BME280;1809;48.470;9.226;2024-02-15T05:39:39;120075.63;;;7.54;100.00
3590;BME280;1809;48.470;9.226;2024-02-15T05:42:05;119381.06;;;7.49;100.00
3590;BME280;1809;48.470;9.226;2024-02-15T05:44:30;119019.59;;;7.40;100.00
3590;BME280;1809;48.470;9.226;2024-02-15T05:46:55;120073.66;;;7.53;100.00
3590;BME280;1809;48.470;9.226;2024-02-15T05:49:21;119696.13;;;7.35;100.00
3590;BME280;1809;48.470;9.226;2024-02-15T05:51:49;120379.72;;;7.34;100.00
3590;BME280;1809;48.470;9.226;2024-02-15T05:54:14;120371.75;;;7.30;100.00
3590;BME280;1809;48.470;9.226;2024-02-15T05:56:39;121071.41;;;7.37;100.00
3590;BME280;1809;48.470;9.226;2024-02-15T05:59:07;120730.50;;;7.38;100.00
3590;BME280;1809;48.470;9.226;2024-02-15T06:01:39;120387.66;;;7.38;100.00
3590;BME280;1809;48.470;9.226;2024-02-15T06:04:06;120042.91;;;7.37;100.00
3590;BME280;1809;48.470;9.226;2024-02-15T06:06:34;119692.19;;;7.33;100.00
3590;BME280;1809;48.470;9.226;2024-02-15T06:08:59;120040.91;;;7.36;100.00
3590;BME280;1809;48.470;9.226;2024-02-15T06:11:25;119682.31;;;7.28;100.00
3590;BME280;1809;48.470;9.226;2024-02-15T06:13:51;119664.47;;;7.19;100.00
3590;BME280;1809;48.470;9.226;2024-02-15T06:16:16;120686.56;;;7.16;100.00
3590;BME280;1809;48.470;9.226;2024-02-15T06:18:42;121720.00;;;7.19;100.00
3590;BME280;1809;48.470;9.226;2024-02-15T06:21:07;122406.75;;;7.19;100.00
3590;BME280;1809;48.470;9.226;2024-02-15T06:23:34;122752.75;;;7.21;100.00
3590;BME280;1809;48.470;9.226;2024-02-15T06:26:00;122749.69;;;7.19;100.00
3590;BME280;1809;48.470;9.226;2024-02-15T06:28:27;122391.56;;;7.12;100.00
3590;BME280;1809;48.470;9.226;2024-02-15T06:31:11;123082.47;;;7.14;100.00
3590;BME280;1809;48.470;9.226;2024-02-15T06:33:56;123057.00;;;7.01;100.00
3590;BME280;1809;48.470;9.226;2024-02-15T06:36:45;123376.41;;;6.90;100.00
3590;BME280;1809;48.470;9.226;2024-02-15T06:39:29;124387.63;;;6.81;100.00
3590;BME280;1809;48.470;9.226;2024-02-15T06:42:06;126126.56;;;6.93;100.00
3590;BME280;1809;48.470;9.226;2024-02-15T06:44:32;127147.69;;;6.89;100.00
3590;BME280;1809;48.470;9.226;2024-02-15T06:46:57;128190.19;;;6.95;100.00
3590;BME280;1809;48.470;9.226;2024-02-15T06:49:23;128891.94;;;7.02;100.00
3590;BME280;1809;48.470;9.226;2024-02-15T06:51:50;128546.34;;;7.01;100.00
3590;BME280;1809;48.470;9.226;2024-02-15T06:54:16;128537.84;;;6.97;100.00
3590;BME280;1809;48.470;9.226;2024-02-15T06:56:43;128193.41;;;6.96;100.00
3590;BME280;1809;48.470;9.226;2024-02-15T06:59:11;128196.56;;;6.98;100.00
3590;BME280;1809;48.470;9.226;2024-02-15T07:01:40;128564.47;;;7.10;100.00
3590;BME280;1809;48.470;9.226;2024-02-15T07:04:07;127543.72;;;7.14;100.00
3590;BME280;1809;48.470;9.226;2024-02-15T07:06:33;126530.50;;;7.22;100.00
3590;BME280;1809;48.470;9.226;2024-02-15T07:09:00;125850.13;;;7.25;100.00
3590;BME280;1809;48.470;9.226;2024-02-15T07:11:25;124828.66;;;7.29;100.00
3590;BME280;1809;48.470;9.226;2024-02-15T07:13:51;123822.78;;;7.41;100.00
3590;BME280;1809;48.470;9.226;2024-02-15T07:16:19;122456.41;;;7.44;100.00
3590;BME280;1809;48.470;9.226;2024-02-15T07:18:45;121438.41;;;7.49;100.00
3590;BME280;1809;48.470;9.226;2024-02-15T07:21:11;120412.56;;;7.51;100.00
3590;BME280;1809;48.470;9.226;2024-02-15T07:23:39;119044.19;;;7.52;100.00
3590;BME280;1809;48.470;9.226;2024-02-15T07:26:06;119069.78;;;7.66;100.00
3590;BME280;1809;48.470;9.226;2024-02-15T07:28:31;118389.03;;;7.68;100.00
3590;BME280;1809;48.470;9.226;2024-02-15T07:30:57;117030.69;;;7.75;100.00
3590;BME280;1809;48.470;9.226;2024-02-15T07:33:22;115323.28;;;7.78;100.00
3590;BME280;1809;48.470;9.226;2024-02-15T07:35:48;114315.56;;;7.88;100.00
3590;BME280;1809;48.470;9.226;2024-02-15T07:38:16;113324.66;;;8.08;100.00
3590;BME280;1809;48.470;9.226;2024-02-15T07:40:42;110947.91;;;8.19;100.00
3590;BME280;1809;48.470;9.226;2024-02-15T07:43:07;107884.09;;;8.28;100.00
3590;BME280;1809;48.470;9.226;2024-02-15T07:45:33;103791.50;;;8.34;100.00
3590;BME280;1809;48.470;9.226;2024-02-15T07:48:01;101076.94;;;8.45;100.00
3590;BME280;1809;48.470;9.226;2024-02-15T07:50:29;98365.16;;;8.57;100.00
3590;BME280;1809;48.470;9.226;2024-02-15T07:52:55;95670.13;;;8.80;100.00
3590;BME280;1809;48.470;9.226;2024-02-15T07:55:21;89881.31;;;8.84;100.00
3590;BME280;1809;48.470;9.226;2024-02-15T07:57:46;84783.00;;;8.90;100.00
3590;BME280;1809;48.470;9.226;2024-02-15T08:00:13;81057.00;;;9.00;100.00
3590;BME280;1809;48.470;9.226;2024-02-15T08:02:41;76647.22;;;9.05;100.00
3590;BME280;1809;48.470;9.226;2024-02-15T08:05:08;69212.69;;;9.28;100.00
3590;BME280;1809;48.470;9.226;2024-02-15T08:07:41;61771.25;;;9.33;100.00
3590;BME280;1809;48.470;9.226;2024-02-15T08:10:07;59096.53;;;9.63;100.00
3590;BME280;1809;48.470;9.226;2024-02-15T08:12:41;46276.53;;;9.65;100.00
3590;BME280;1809;48.470;9.226;2024-02-15T08:15:07;36197.94;;;9.81;100.00
3590;BME280;1809;48.470;9.226;2024-02-15T08:20:11;8775.47;;;10.10;100.00
3590;BME280;1809;48.470;9.226;2024-02-15T08:22:38;-3815.03;;;10.21;100.00
3590;BME280;1809;48.470;9.226;2024-02-15T08:27:31;-16464.81;;;10.61;100.00
3590;BME280;1809;48.470;9.226;2024-02-15T08:29:58;-16470.97;;;10.84;100.00
3590;BME280;1809;48.470;9.226;2024-02-15T08:32:24;-16480.13;;;11.16;100.00
3590;BME280;1809;48.470;9.226;2024-02-15T08:34:49;-16485.44;;;11.36;100.00
3590;BME280;1809;48.470;9.226;2024-02-15T08:37:15;-16488.41;;;11.46;100.00
3590;BME280;1809;48.470;9.226;2024-02-15T08:39:40;-16492.88;;;11.62;100.00
3590;BME280;1809;48.470;9.226;2024-02-15T08:42:06;-16496.81;;;11.76;100.00
3590;BME280;1809;48.470;9.226;2024-02-15T08:44:31;-16501.59;;;11.94;100.00
3590;BME280;1809;48.470;9.226;2024-02-15T08:46:56;-16506.66;;;12.12;100.00
3590;BME280;1809;48.470;9.226;2024-02-15T08:49:21;-16511.41;;;12.29;100.00
3590;BME280;1809;48.470;9.226;2024-02-15T08:51:47;-16518.28;;;12.54;100.00
3590;BME280;1809;48.470;9.226;2024-02-15T08:54:12;-16523.75;;;12.73;100.00
3590;BME280;1809;48.470;9.226;2024-02-15T08:56:37;-16526.56;;;12.83;100.00
3590;BME280;1809;48.470;9.226;2024-02-15T08:59:03;-16525.44;;;12.79;100.00
3590;BME280;1809;48.470;9.226;2024-02-15T09:01:28;-16526.16;;;12.82;100.00
3590;BME280;1809;48.470;9.226;2024-02-15T09:03:53;-16525.16;;;12.78;100.00
3590;BME280;1809;48.470;9.226;2024-02-15T09:06:19;-16524.88;;;12.77;100.00
3590;BME280;1809;48.470;9.226;2024-02-15T09:08:44;-16528.97;;;12.92;100.00
3590;BME280;1809;48.470;9.226;2024-02-15T09:11:11;-16535.41;;;13.15;100.00
3590;BME280;1809;48.470;9.226;2024-02-15T09:13:37;-16540.88;;;13.35;100.00
3590;BME280;1809;48.470;9.226;2024-02-15T09:16:04;-16541.03;;;13.35;100.00
3590;BME280;1809;48.470;9.226;2024-02-15T09:18:29;-16545.66;;;13.52;100.00
3590;BME280;1809;48.470;9.226;2024-02-15T09:20:55;-16549.88;;;13.67;100.00
3590;BME280;1809;48.470;9.226;2024-02-15T09:23:21;-16551.28;;;13.72;100.00
3590;BME280;1809;48.470;9.226;2024-02-15T09:25:48;-16551.28;;;13.72;100.00
3590;BME280;1809;48.470;9.226;2024-02-15T09:28:15;-16550.56;;;13.70;100.00
3590;BME280;1809;48.470;9.226;2024-02-15T09:30:40;-16553.78;;;13.81;100.00
3590;BME280;1809;48.470;9.226;2024-02-15T09:33:05;-16561.66;;;14.10;100.00
3590;BME280;1809;48.470;9.226;2024-02-15T09:35:31;-16568.25;;;14.33;100.00
3590;BME280;1809;48.470;9.226;2024-02-15T09:37:57;-16562.75;;;14.14;100.00
3590;BME280;1809;48.470;9.226;2024-02-15T09:40:23;-16568.78;;;14.35;100.00
3590;BME280;1809;48.470;9.226;2024-02-15T09:42:54;-16568.66;;;14.35;100.00
3590;BME280;1809;48.470;9.226;2024-02-15T09:45:19;-16568.38;;;14.34;100.00
3590;BME280;1809;48.470;9.226;2024-02-15T09:47:46;-16572.88;;;14.50;100.00
3590;BME280;1809;48.470;9.226;2024-02-15T09:50:16;-16577.63;;;14.67;100.00
3590;BME280;1809;48.470;9.226;2024-02-15T09:52:49;-16581.84;;;14.82;100.00
3590;BME280;1809;48.470;9.226;2024-02-15T09:55:16;-16585.19;;;14.94;100.00
3590;BME280;1809;48.470;9.226;2024-02-15T09:57:42;-16586.75;;;15.00;100.00
3590;BME280;1809;48.470;9.226;2024-02-15T10:00:10;-16594.44;;;15.28;100.00
3590;BME280;1809;48.470;9.226;2024-02-15T10:02:43;-16599.78;;;15.47;100.00
3590;BME280;1809;48.470;9.226;2024-02-15T10:05:11;-16601.19;;;15.52;100.00
3590;BME280;1809;48.470;9.226;2024-02-15T10:07:41;-16601.47;;;15.53;100.00
3590;BME280;1809;48.470;9.226;2024-02-15T10:10:20;-16600.75;;;15.50;100.00
3590;BME280;1809;48.470;9.226;2024-02-15T10:12:49;-16598.94;;;15.44;100.00
3590;BME280;1809;48.470;9.226;2024-02-15T10:15:35;-16601.75;;;15.54;100.00
3590;BME280;1809;48.470;9.226;2024-02-15T10:18:03;-16603.56;;;15.60;100.00
3590;BME280;1809;48.470;9.226;2024-02-15T10:20:29;-16606.50;;;15.71;100.00
3590;BME280;1809;48.470;9.226;2024-02-15T10:25:29;-16607.34;;;15.74;100.00
3590;BME280;1809;48.470;9.226;2024-02-15T10:28:08;-16603.16;;;15.59;100.00
3590;BME280;1809;48.470;9.226;2024-02-15T10:30:35;-16605.94;;;15.69;100.00
3590;BME280;1809;48.470;9.226;2024-02-15T10:33:05;-16603.56;;;15.60;100.00
3590;BME280;1809;48.470;9.226;2024-02-15T10:35:31;-16608.19;;;15.77;100.00
3590;BME280;1809;48.470;9.226;2024-02-15T10:40:33;-16610.84;;;15.87;100.00
3590;BME280;1809;48.470;9.226;2024-02-15T10:42:59;-16618.28;;;16.13;100.00
3590;BME280;1809;48.470;9.226;2024-02-15T10:45:25;-16619.41;;;16.18;100.00
3590;BME280;1809;48.470;9.226;2024-02-15T10:47:50;-16620.78;;;16.23;100.00
3590;BME280;1809;48.470;9.226;2024-02-15T10:50:16;-16623.59;;;16.33;100.00
3590;BME280;1809;48.470;9.226;2024-02-15T10:52:55;-16623.88;;;16.34;100.00
3590;BME280;1809;48.470;9.226;2024-02-15T10:55:38;-16628.38;;;16.50;100.00
3590;BME280;1809;48.470;9.226;2024-02-15T10:58:06;-16629.06;;;16.52;100.00
3590;BME280;1809;48.470;9.226;2024-02-15T11:00:33;-16632.56;;;16.65;100.00
3590;BME280;1809;48.470;9.226;2024-02-15T11:03:03;-16635.09;;;16.74;100.00
3590;BME280;1809;48.470;9.226;2024-02-15T11:05:34;-16639.72;;;16.91;100.00
3590;BME280;1809;48.470;9.226;2024-02-15T11:08:02;-16643.78;;;17.05;100.00
3590;BME280;1809;48.470;9.226;2024-02-15T11:10:29;-16641.25;;;16.96;100.00
3590;BME280;1809;48.470;9.226;2024-02-15T11:12:55;-16639.56;;;16.90;100.00
3590;BME280;1809;48.470;9.226;2024-02-15T11:18:02;-16640.13;;;16.92;100.00
3590;BME280;1809;48.470;9.226;2024-02-15T11:23:02;-16637.88;;;16.84;100.00
3590;BME280;1809;48.470;9.226;2024-02-15T11:25:36;-16637.75;;;16.84;100.00
3590;BME280;1809;48.470;9.226;2024-02-15T11:30:46;-16642.78;;;17.02;100.00
3590;BME280;1809;48.470;9.226;2024-02-15T11:33:27;-16646.84;;;17.16;100.00
3590;BME280;1809;48.470;9.226;2024-02-15T11:36:05;-16649.09;;;17.25;100.00
3590;BME280;1809;48.470;9.226;2024-02-15T11:38:31;-16651.63;;;17.34;100.00
3590;BME280;1809;48.470;9.226;2024-02-15T11:46:16;-16650.78;;;17.31;100.00
3590;BME280;1809;48.470;9.226;2024-02-15T11:48:46;-16656.09;;;17.50;100.00
3590;BME280;1809;48.470;9.226;2024-02-15T11:54:01;-16653.84;;;17.42;100.00
3590;BME280;1809;48.470;9.226;2024-02-15T11:56:30;-16652.16;;;17.36;100.00
3590;BME280;1809;48.470;9.226;2024-02-15T11:59:04;-16647.69;;;17.19;100.00
3590;BME280;1809;48.470;9.226;2024-02-15T12:01:31;-16649.38;;;17.26;100.00
3590;BME280;1809;48.470;9.226;2024-02-15T12:04:16;-16652.16;;;17.36;100.00
3590;BME280;1809;48.470;9.226;2024-02-15T12:06:59;-16655.94;;;17.49;100.00
3590;BME280;1809;48.470;9.226;2024-02-15T12:09:43;-16648.81;;;17.24;100.00
3590;BME280;1809;48.470;9.226;2024-02-15T12:12:27;-16652.16;;;17.36;100.00
3590;BME280;1809;48.470;9.226;2024-02-15T12:15:11;-16650.22;;;17.29;100.00
3590;BME280;1809;48.470;9.226;2024-02-15T12:18:13;-16654.97;;;17.46;100.00
3590;BME280;1809;48.470;9.226;2024-02-15T12:20:57;-16662.81;;;17.74;100.00
3590;BME280;1809;48.470;9.226;2024-02-15T12:23:22;-16662.53;;;17.73;100.00
3590;BME280;1809;48.470;9.226;2024-02-15T12:25:52;-16663.94;;;17.78;100.00
3590;BME280;1809;48.470;9.226;2024-02-15T12:28:17;-16667.28;;;17.90;100.00
3590;BME280;1809;48.470;9.226;2024-02-15T12:30:43;-16668.97;;;17.96;100.00
3590;BME280;1809;48.470;9.226;2024-02-15T12:33:10;-16665.34;;;17.83;100.00
3590;BME280;1809;48.470;9.226;2024-02-15T12:35:36;-16667.84;;;17.92;100.00
3590;BME280;1809;48.470;9.226;2024-02-15T12:38:02;-16672.88;;;18.10;100.00
3590;BME280;1809;48.470;9.226;2024-02-15T12:40:31;-16676.94;;;18.25;100.00
3590;BME280;1809;48.470;9.226;2024-02-15T12:42:56;-16680.03;;;18.36;100.00
3590;BME280;1809;48.470;9.226;2024-02-15T12:45:25;-16677.94;;;18.28;100.00
3590;BME280;1809;48.470;9.226;2024-02-15T12:47:53;-16679.59;;;18.35;100.00
3590;BME280;1809;48.470;9.226;2024-02-15T12:50:29;-16679.31;;;18.34;100.00
3590;BME280;1809;48.470;9.226;2024-02-15T12:52:55;-16676.25;;;18.22;100.00
3590;BME280;1809;48.470;9.226;2024-02-15T12:55:28;-16673.59;;;18.13;100.00
3590;BME280;1809;48.470;9.226;2024-02-15T12:57:54;-16675.13;;;18.18;100.00
3590;BME280;1809;48.470;9.226;2024-02-15T13:00:24;-16680.16;;;18.37;100.00
3590;BME280;1809;48.470;9.226;2024-02-15T13:02:59;-16676.38;;;18.23;100.00
3590;BME280;1809;48.470;9.226;2024-02-15T13:05:26;-16673.88;;;18.14;100.00
3590;BME280;1809;48.470;9.226;2024-02-15T13:07:53;-16678.63;;;18.31;100.00
3590;BME280;1809;48.470;9.226;2024-02-15T13:10:23;-16673.72;;;18.13;100.00
3590;BME280;1809;48.470;9.226;2024-02-15T13:12:50;-16680.16;;;18.37;100.00
3590;BME280;1809;48.470;9.226;2024-02-15T13:15:16;-16675.56;;;18.20;100.00
3590;BME280;1809;48.470;9.226;2024-02-15T13:17:50;-16678.75;;;18.32;100.00
3590;BME280;1809;48.470;9.226;2024-02-15T13:20:19;-16687.59;;;18.63;100.00
3590;BME280;1809;48.470;9.226;2024-02-15T13:22:47;-16680.72;;;18.39;100.00
3590;BME280;1809;48.470;9.226;2024-02-15T13:25:15;-16689.41;;;18.70;100.00
3590;BME280;1809;48.470;9.226;2024-02-15T13:27:46;-16697.38;;;18.99;100.00
3590;BME280;1809;48.470;9.226;2024-02-15T13:30:11;-16699.63;;;19.07;100.00
3590;BME280;1809;48.470;9.226;2024-02-15T13:32:39;-16696.69;;;18.96;100.00
3590;BME280;1809;48.470;9.226;2024-02-15T13:35:07;-16701.28;;;19.13;100.00
3590;BME280;1809;48.470;9.226;2024-02-15T13:37:47;-16699.75;;;19.07;100.00